Time;durP1;ratioP1;P1;durP2;ratioP2;P2;SDS_P1;SDS_P2;PMS_P1;PMS_P2;Temp;Humidity;BMP_temperature;BMP_pressure;BME280_temperature;BME280_humidity;BME280_pressure;Samples;Min_cycle;Max_cycle;Signal;HPM_P1;HPM_P2
2021/12/26 00:02:23;;;;;;;;;;;;;;;0.42;63.74;100677.78;10501303;28;19920;-81
2021/12/26 00:07:25;;;;;;;;;;;;;;;0.31;63.77;100663.22;10501484;28;19970;-82
2021/12/26 00:12:28;;;;;;;;;;;;;;;0.35;63.17;100677.09;10498896;28;19928;-82
2021/12/26 00:17:29;;;;;;;;;;;;;;;0.29;63.19;100672.06;10496045;28;19977;-82
2021/12/26 00:22:31;;;;;;;;;;;;;;;0.26;63.21;100665.13;10501312;28;19941;-82
2021/12/26 00:27:34;;;;;;;;;;;;;;;0.23;63.43;100673.09;10496811;28;20351;-82
2021/12/26 00:32:35;;;;;;;;;;;;;;;0.22;62.95;100667.91;10499754;28;20368;-82
2021/12/26 00:37:37;;;;;;;;;;;;;;;0.18;62.99;100677.63;10503031;28;19973;-82
2021/12/26 00:42:39;;;;;;;;;;;;;;;0.16;62.95;100671.56;10497070;28;19924;-82
2021/12/26 00:47:41;;;;;;;;;;;;;;;0.13;63.24;100655.91;10501028;28;19931;-82
2021/12/26 00:52:42;;;;;;;;;;;;;;;0.08;63.74;100655.22;10496136;28;20024;-82
2021/12/26 00:57:45;;;;;;;;;;;;;;;0.03;63.28;100667.63;10500296;28;21377;-82
2021/12/26 01:02:47;;;;;;;;;;;;;;;-0.01;63.15;100664.22;10502655;28;19928;-82
2021/12/26 01:07:56;;;;;;;;;;;;;;;-0.08;63.31;100653.03;10499150;28;19981;-82
2021/12/26 01:13:08;;;;;;;;;;;;;;;-0.07;63.36;100657.41;10498712;28;19924;-82
2021/12/26 01:18:10;;;;;;;;;;;;;;;-0.13;62.58;100652.34;10499710;28;20272;-83
2021/12/26 01:23:12;;;;;;;;;;;;;;;-0.15;63.70;100658.53;10504602;28;19935;-83
2021/12/26 01:28:17;;;;;;;;;;;;;;;-0.19;62.89;100660.38;10499200;28;19924;-82
2021/12/26 01:33:20;;;;;;;;;;;;;;;-0.21;63.56;100649.97;10499413;28;20042;-82
2021/12/26 01:38:23;;;;;;;;;;;;;;;-0.25;63.37;100639.59;10501875;28;19924;-82
2021/12/26 01:43:27;;;;;;;;;;;;;;;-0.34;63.25;100637.25;10502421;28;19925;-82
2021/12/26 01:48:28;;;;;;;;;;;;;;;-0.48;63.75;100619.28;10501816;28;20015;-82
2021/12/26 01:53:36;;;;;;;;;;;;;;;-0.32;64.03;100640.66;10503729;28;19923;-82
2021/12/26 01:58:40;;;;;;;;;;;;;;;-0.31;64.02;100653.75;10501365;28;19928;-83
2021/12/26 02:03:42;;;;;;;;;;;;;;;-0.28;64.06;100647.56;10503320;28;19924;-81
2021/12/26 02:08:43;;;;;;;;;;;;;;;-0.32;64.01;100643.28;10502516;28;19927;-82
2021/12/26 02:13:47;;;;;;;;;;;;;;;-0.29;64.04;100638.81;10502666;28;21953;-82
2021/12/26 02:18:48;;;;;;;;;;;;;;;-0.29;64.31;100630.94;10503058;28;19947;-82
2021/12/26 02:23:58;;;;;;;;;;;;;;;-0.33;64.08;100626.69;10506232;28;20386;-82
2021/12/26 02:28:59;;;;;;;;;;;;;;;-0.35;63.48;100620.66;10512558;28;19910;-83
2021/12/26 02:34:01;;;;;;;;;;;;;;;-0.36;63.90;100616.28;10507906;28;19943;-82
2021/12/26 02:39:04;;;;;;;;;;;;;;;-0.39;63.92;100616.41;10509735;28;19930;-83
2021/12/26 02:44:06;;;;;;;;;;;;;;;-0.38;64.58;100617.25;10515709;28;19973;-82
2021/12/26 02:49:07;;;;;;;;;;;;;;;-0.46;63.63;100607.84;10508030;28;19924;-83
2021/12/26 02:54:10;;;;;;;;;;;;;;;-0.46;64.17;100599.97;10512919;28;19920;-82
2021/12/26 02:59:12;;;;;;;;;;;;;;;-0.48;63.57;100596.53;10509271;28;19931;-83
2021/12/26 03:04:13;;;;;;;;;;;;;;;-0.50;63.30;100589.63;10508125;28;19942;-82
2021/12/26 03:09:16;;;;;;;;;;;;;;;-0.53;64.15;100587.94;10512104;28;19928;-83
2021/12/26 03:14:17;;;;;;;;;;;;;;;-0.52;64.57;100571.31;10517693;28;19932;-82
2021/12/26 03:19:19;;;;;;;;;;;;;;;-0.54;64.13;100575.75;10508122;28;20451;-82
2021/12/26 03:24:22;;;;;;;;;;;;;;;-0.58;64.33;100571.50;10512744;28;20030;-82
2021/12/26 03:29:24;;;;;;;;;;;;;;;-0.62;63.40;100578.59;10512524;28;19927;-84
2021/12/26 03:34:25;;;;;;;;;;;;;;;-0.67;63.56;100575.25;10513829;28;19924;-82
2021/12/26 03:39:28;;;;;;;;;;;;;;;-0.70;63.88;100562.22;10514085;28;20379;-82
2021/12/26 03:44:30;;;;;;;;;;;;;;;-0.66;64.58;100573.47;10511365;28;19928;-82
2021/12/26 03:49:32;;;;;;;;;;;;;;;-0.65;64.13;100565.56;10509419;28;19927;-82
2021/12/26 03:54:36;;;;;;;;;;;;;;;-0.66;64.25;100563.88;10515589;28;19932;-82
2021/12/26 03:59:37;;;;;;;;;;;;;;;-0.66;65.35;100556.00;10508473;28;19967;-81
2021/12/26 04:04:39;;;;;;;;;;;;;;;-0.67;64.26;100566.53;10509152;28;20346;-81
2021/12/26 04:09:43;;;;;;;;;;;;;;;-0.68;64.49;100567.41;10505224;28;19927;-81
2021/12/26 04:14:44;;;;;;;;;;;;;;;-0.70;65.08;100558.75;10505796;28;19981;-81
2021/12/26 04:19:46;;;;;;;;;;;;;;;-0.72;64.73;100553.53;10505392;28;19928;-81
2021/12/26 04:24:50;;;;;;;;;;;;;;;-0.75;65.15;100561.53;10510247;28;19932;-82
2021/12/26 04:29:51;;;;;;;;;;;;;;;-0.75;64.99;100556.28;10505839;28;20360;-82
2021/12/26 04:34:53;;;;;;;;;;;;;;;-0.80;64.71;100556.41;10511178;28;20265;-82
2021/12/26 04:39:56;;;;;;;;;;;;;;;-0.82;64.29;100552.13;10504068;28;19923;-82
2021/12/26 04:44:58;;;;;;;;;;;;;;;-0.83;64.51;100548.63;10511280;28;19935;-82
2021/12/26 04:50:00;;;;;;;;;;;;;;;-0.84;65.44;100546.06;10508081;28;19932;-81
2021/12/26 04:55:05;;;;;;;;;;;;;;;-0.84;64.41;100535.56;10511235;28;19928;-82
2021/12/26 05:00:07;;;;;;;;;;;;;;;-0.95;64.05;100540.28;10509554;28;19928;-82
2021/12/26 05:05:09;;;;;;;;;;;;;;;-1.01;64.74;100531.69;10510078;28;19936;-81
2021/12/26 05:10:14;;;;;;;;;;;;;;;-0.97;64.61;100537.69;10506520;28;20198;-81
2021/12/26 05:15:16;;;;;;;;;;;;;;;-1.04;64.86;100538.75;10506866;28;20426;-81
2021/12/26 05:20:19;;;;;;;;;;;;;;;-1.08;64.60;100540.59;10501596;28;19970;-81
2021/12/26 05:25:23;;;;;;;;;;;;;;;-1.09;64.72;100527.53;10504296;28;19983;-81
2021/12/26 05:30:25;;;;;;;;;;;;;;;-1.14;64.58;100522.44;10504310;28;19930;-82
2021/12/26 05:35:27;;;;;;;;;;;;;;;-1.14;64.54;100518.97;10501863;28;19924;-81
2021/12/26 05:40:31;;;;;;;;;;;;;;;-1.13;65.89;100513.69;10502812;28;19928;-81
2021/12/26 05:45:32;;;;;;;;;;;;;;;-1.09;65.73;100506.59;10505507;28;19928;-81
2021/12/26 05:50:34;;;;;;;;;;;;;;;-1.08;65.04;100501.31;10502107;28;19928;-81
2021/12/26 05:55:37;;;;;;;;;;;;;;;-1.10;64.70;100508.34;10502857;28;19924;-81
2021/12/26 06:00:39;;;;;;;;;;;;;;;-1.08;65.29;100500.47;10507914;28;19924;-81
2021/12/26 06:05:40;;;;;;;;;;;;;;;-1.10;64.89;100497.88;10514980;28;19924;-82
2021/12/26 06:10:43;;;;;;;;;;;;;;;-1.11;65.53;100497.91;10514179;28;19931;-82
2021/12/26 06:15:44;;;;;;;;;;;;;;;-1.15;64.60;100499.75;10514850;28;20387;-81
2021/12/26 06:20:46;;;;;;;;;;;;;;;-1.16;65.08;100505.06;10516990;28;19934;-82
2021/12/26 06:25:49;;;;;;;;;;;;;;;-1.15;65.19;100510.25;10521837;28;19985;-81
2021/12/26 06:30:51;;;;;;;;;;;;;;;-1.17;65.06;100501.56;10512352;28;20315;-82
2021/12/26 06:35:53;;;;;;;;;;;;;;;-1.18;65.12;100498.09;10514674;28;19920;-82
2021/12/26 06:40:55;;;;;;;;;;;;;;;-1.18;65.26;100498.09;10514822;28;19924;-82
2021/12/26 06:45:57;;;;;;;;;;;;;;;-1.19;65.46;100499.03;10511464;28;19923;-81
2021/12/26 06:50:59;;;;;;;;;;;;;;;-1.19;66.27;100487.66;10516710;28;19927;-82
2021/12/26 06:56:02;;;;;;;;;;;;;;;-1.22;65.00;100488.63;10513235;28;19931;-82
2021/12/26 07:01:03;;;;;;;;;;;;;;;-1.24;66.13;100486.94;10513799;28;19920;-81
2021/12/26 07:06:05;;;;;;;;;;;;;;;-1.26;65.06;100476.50;10512035;28;19924;-82
2021/12/26 07:11:08;;;;;;;;;;;;;;;-1.25;66.12;100479.97;10508487;28;19927;-81
2021/12/26 07:16:10;;;;;;;;;;;;;;;-1.25;65.52;100486.06;10509947;28;19927;-81
2021/12/26 07:21:11;;;;;;;;;;;;;;;-1.24;65.43;100484.34;10512174;28;20319;-81
2021/12/26 07:26:15;;;;;;;;;;;;;;;-1.25;65.56;100486.06;10510577;28;19928;-82
2021/12/26 07:31:16;;;;;;;;;;;;;;;-1.27;65.82;100485.25;10506839;28;20055;-81
2021/12/26 07:36:18;;;;;;;;;;;;;;;-1.29;66.14;100481.81;10512515;28;19923;-81
2021/12/26 07:41:21;;;;;;;;;;;;;;;-1.29;66.37;100494.94;10507392;28;19928;-81
2021/12/26 07:46:23;;;;;;;;;;;;;;;-1.26;66.98;100492.22;10506749;28;19958;-81
2021/12/26 07:51:24;;;;;;;;;;;;;;;-1.24;66.46;100492.19;10512802;28;19924;-81
2021/12/26 07:56:27;;;;;;;;;;;;;;;-1.27;65.90;100498.34;10511994;28;19928;-81
2021/12/26 08:01:29;;;;;;;;;;;;;;;-1.32;66.47;100500.25;10508744;28;19924;-82
2021/12/26 08:06:31;;;;;;;;;;;;;;;-1.34;67.04;100494.19;10508096;28;20372;-82
2021/12/26 08:11:34;;;;;;;;;;;;;;;-1.32;66.00;100502.84;10508797;28;19923;-82
2021/12/26 08:16:36;;;;;;;;;;;;;;;-1.34;66.71;100507.28;10501929;28;19924;-81
2021/12/26 08:21:37;;;;;;;;;;;;;;;-1.33;67.66;100497.69;10503912;28;19978;-81
2021/12/26 08:26:40;;;;;;;;;;;;;;;-1.32;67.43;100502.00;10506619;28;19977;-81
2021/12/26 08:31:41;;;;;;;;;;;;;;;-1.29;66.75;100501.94;10497026;28;20410;-81
2021/12/26 08:36:43;;;;;;;;;;;;;;;-1.33;66.89;100501.16;10501836;28;20288;-81
2021/12/26 08:41:46;;;;;;;;;;;;;;;-1.31;66.28;100515.06;10501983;28;19947;-81
2021/12/26 08:46:47;;;;;;;;;;;;;;;-1.28;67.79;100508.88;10498349;28;19924;-81
2021/12/26 08:51:59;;;;;;;;;;;;;;;-1.26;66.88;100494.84;10502516;28;20054;-81
2021/12/26 08:57:02;;;;;;;;;;;;;;;-1.27;66.32;100498.34;10507948;28;19928;-81
2021/12/26 09:02:06;;;;;;;;;;;;;;;-1.26;66.95;100489.59;10507878;28;19928;-81
2021/12/26 09:07:09;;;;;;;;;;;;;;;-1.21;67.00;100487.69;10509963;28;19924;-81
2021/12/26 09:12:13;;;;;;;;;;;;;;;-1.10;67.23;100492.63;10507981;28;20177;-81
2021/12/26 09:17:15;;;;;;;;;;;;;;;-1.02;67.46;100490.66;10507822;28;19966;-82
2021/12/26 09:22:17;;;;;;;;;;;;;;;-0.93;67.40;100494.75;10506079;28;19928;-81
2021/12/26 09:27:21;;;;;;;;;;;;;;;-0.86;68.15;100493.66;10508182;28;19990;-80
2021/12/26 09:32:23;;;;;;;;;;;;;;;-0.86;67.06;100488.44;10501405;28;20569;-81
2021/12/26 09:37:24;;;;;;;;;;;;;;;-0.82;67.25;100487.44;10503179;28;21217;-81
2021/12/26 09:42:29;;;;;;;;;;;;;;;-0.73;68.13;100493.31;10506428;28;19927;-81
2021/12/26 09:47:30;;;;;;;;;;;;;;;-0.65;68.26;100486.91;10500511;28;19928;-82
2021/12/26 09:52:32;;;;;;;;;;;;;;;-0.63;68.25;100477.22;10501270;28;19928;-81
2021/12/26 09:57:35;;;;;;;;;;;;;;;-0.52;68.25;100479.50;10500006;28;20348;-81
2021/12/26 10:02:37;;;;;;;;;;;;;;;-0.45;68.58;100467.06;10500976;28;20425;-82
2021/12/26 10:07:39;;;;;;;;;;;;;;;-0.40;67.96;100465.13;10494314;28;19931;-81
2021/12/26 10:12:42;;;;;;;;;;;;;;;-0.33;68.43;100471.91;10497879;28;20026;-81
2021/12/26 10:17:44;;;;;;;;;;;;;;;-0.26;68.34;100460.31;10497591;28;19924;-81
2021/12/26 10:22:45;;;;;;;;;;;;;;;-0.19;68.23;100447.81;10494505;28;19928;-82
2021/12/26 10:27:49;;;;;;;;;;;;;;;-0.09;68.04;100440.53;10499151;28;19930;-81
2021/12/26 10:32:57;;;;;;;;;;;;;;;-0.01;68.44;100431.44;10504280;28;20398;-81
2021/12/26 10:37:59;;;;;;;;;;;;;;;0.07;68.61;100427.72;10499188;28;19935;-82
2021/12/26 10:43:02;;;;;;;;;;;;;;;0.18;69.27;100422.94;10498548;28;19928;-82
2021/12/26 10:48:04;;;;;;;;;;;;;;;0.22;68.53;100427.16;10503217;28;19920;-81
2021/12/26 10:53:07;;;;;;;;;;;;;;;0.31;69.12;100421.59;10503911;28;19924;-81
2021/12/26 10:58:12;;;;;;;;;;;;;;;0.37;68.67;100418.72;10506054;28;19928;-81
2021/12/26 11:03:21;;;;;;;;;;;;;;;0.46;68.86;100424.56;10513096;28;20273;-82
2021/12/26 11:08:26;;;;;;;;;;;;;;;0.56;69.16;100420.69;10515499;28;19924;-81
2021/12/26 11:13:30;;;;;;;;;;;;;;;0.62;69.09;100406.47;10515232;28;20457;-81
2021/12/26 11:18:31;;;;;;;;;;;;;;;0.72;69.19;100397.31;10518204;28;19928;-82
2021/12/26 11:23:34;;;;;;;;;;;;;;;0.78;69.10;100395.31;10520286;28;19981;-81
2021/12/26 11:28:38;;;;;;;;;;;;;;;0.82;69.20;100400.44;10513870;28;20016;-81
2021/12/26 11:33:40;;;;;;;;;;;;;;;0.91;69.46;100386.97;10535872;28;19931;-80
2021/12/26 11:38:42;;;;;;;;;;;;;;;1.02;69.69;100395.28;10549174;28;19924;-81
2021/12/26 11:44:02;;;;;;;;;;;;;;;1.12;70.06;100388.72;10546137;28;19924;-81
2021/12/26 11:49:23;;;;;;;;;;;;;;;1.19;69.66;100378.81;10544273;28;19935;-82
2021/12/26 11:54:39;;;;;;;;;;;;;;;1.27;70.03;100386.41;10546086;28;20046;-81
2021/12/26 11:59:56;;;;;;;;;;;;;;;1.34;70.10;100372.94;10547198;28;19927;-81
2021/12/26 12:05:07;;;;;;;;;;;;;;;1.41;69.92;100380.56;10538467;28;19927;-82
2021/12/26 12:10:30;;;;;;;;;;;;;;;1.50;70.07;100370.50;10551089;28;19927;-81
2021/12/26 12:15:42;;;;;;;;;;;;;;;1.58;69.94;100366.69;10547642;28;20387;-81
2021/12/26 12:20:45;;;;;;;;;;;;;;;1.59;69.56;100365.78;10547247;28;20463;-81
2021/12/26 12:25:52;;;;;;;;;;;;;;;1.64;70.02;100359.41;10546995;28;20681;-82
2021/12/26 12:30:55;;;;;;;;;;;;;;;1.72;69.98;100343.28;10545389;28;19923;-82
2021/12/26 12:36:00;;;;;;;;;;;;;;;1.79;70.20;100349.13;10537591;28;19924;-82
2021/12/26 12:41:03;;;;;;;;;;;;;;;1.83;70.02;100346.31;10527401;28;19927;-82
2021/12/26 12:46:09;;;;;;;;;;;;;;;1.86;70.28;100321.63;10541840;28;19928;-81
2021/12/26 12:51:29;;;;;;;;;;;;;;;1.91;70.49;100319.66;10537321;28;19923;-81
2021/12/26 12:56:44;;;;;;;;;;;;;;;2.01;70.65;100318.31;10535704;28;19928;-81
2021/12/26 13:01:46;;;;;;;;;;;;;;;2.09;70.48;100310.06;10535884;28;19928;-81
2021/12/26 13:06:49;;;;;;;;;;;;;;;2.15;70.63;100299.25;10535450;28;20036;-82
2021/12/26 13:11:57;;;;;;;;;;;;;;;2.21;70.87;100304.25;10539037;28;19919;-82
2021/12/26 13:16:58;;;;;;;;;;;;;;;2.36;71.56;100299.19;10534718;28;19926;-82
2021/12/26 13:22:00;;;;;;;;;;;;;;;2.50;71.91;100297.59;10531832;28;19927;-82
2021/12/26 13:27:03;;;;;;;;;;;;;;;2.63;71.09;100310.22;10533535;28;20373;-81
2021/12/26 13:32:05;;;;;;;;;;;;;;;2.75;71.55;100296.47;10531345;28;19935;-82
2021/12/26 13:37:07;;;;;;;;;;;;;;;2.80;70.61;100298.88;10535732;28;19924;-82
2021/12/26 13:42:10;;;;;;;;;;;;;;;2.71;70.28;100285.19;10536392;28;19928;-81
2021/12/26 13:47:12;;;;;;;;;;;;;;;2.69;69.87;100278.28;10538432;28;19931;-81
2021/12/26 13:52:16;;;;;;;;;;;;;;;2.69;69.80;100273.88;10535187;28;19924;-82
2021/12/26 13:57:22;;;;;;;;;;;;;;;2.69;70.22;100263.34;10542896;28;19923;-82
2021/12/26 14:02:24;;;;;;;;;;;;;;;2.72;70.66;100257.91;10539116;28;20015;-81
2021/12/26 14:07:27;;;;;;;;;;;;;;;2.79;71.20;100258.47;10529465;28;19954;-81
2021/12/26 14:12:32;;;;;;;;;;;;;;;2.80;70.46;100252.25;10526436;28;19927;-81
2021/12/26 14:17:33;;;;;;;;;;;;;;;2.81;70.87;100259.25;10527852;28;19931;-82
2021/12/26 14:22:35;;;;;;;;;;;;;;;2.80;70.79;100257.50;10530933;28;20456;-81
2021/12/26 14:27:38;;;;;;;;;;;;;;;2.76;70.77;100255.13;10536627;28;19965;-81
2021/12/26 14:32:40;;;;;;;;;;;;;;;2.80;71.22;100256.66;10536353;28;19927;-82
2021/12/26 14:37:41;;;;;;;;;;;;;;;2.77;70.83;100254.16;10535312;28;19924;-82
2021/12/26 14:42:45;;;;;;;;;;;;;;;2.77;71.18;100265.59;10541587;28;19936;-81
2021/12/26 14:47:47;;;;;;;;;;;;;;;2.78;70.86;100255.91;10541764;28;19944;-81
2021/12/26 14:52:49;;;;;;;;;;;;;;;2.79;71.37;100252.31;10539396;28;19924;-81
2021/12/26 14:57:52;;;;;;;;;;;;;;;2.74;70.99;100244.63;10545543;28;19919;-81
2021/12/26 15:02:55;;;;;;;;;;;;;;;2.72;71.53;100255.25;10542284;28;19928;-81
2021/12/26 15:07:57;;;;;;;;;;;;;;;2.72;71.48;100246.50;10538200;28;19923;-82
2021/12/26 15:12:59;;;;;;;;;;;;;;;2.68;71.74;100248.44;10538872;28;19923;-82
2021/12/26 15:18:03;;;;;;;;;;;;;;;2.67;71.37;100237.94;10545719;28;20312;-81
2021/12/26 15:23:06;;;;;;;;;;;;;;;2.63;71.64;100233.75;10540998;28;19935;-81
2021/12/26 15:28:11;;;;;;;;;;;;;;;2.61;72.04;100228.56;10533693;28;19924;-81
2021/12/26 15:33:13;;;;;;;;;;;;;;;2.56;71.74;100227.91;10544631;28;19927;-81
2021/12/26 15:38:14;;;;;;;;;;;;;;;2.53;71.46;100218.41;10542877;28;19934;-80
2021/12/26 15:43:17;;;;;;;;;;;;;;;2.46;71.68;100202.97;10540525;27;20010;-82
2021/12/26 15:48:20;;;;;;;;;;;;;;;2.55;72.00;100220.13;10540604;28;20292;-81
2021/12/26 15:53:21;;;;;;;;;;;;;;;2.54;72.37;100219.25;10542758;28;19924;-82
2021/12/26 15:58:24;;;;;;;;;;;;;;;2.52;72.83;100210.56;10540695;27;20307;-82
2021/12/26 16:03:26;;;;;;;;;;;;;;;2.50;73.05;100212.41;10542061;28;19928;-82
2021/12/26 16:08:27;;;;;;;;;;;;;;;2.48;72.58;100209.84;10546072;28;19928;-81
2021/12/26 16:13:30;;;;;;;;;;;;;;;2.47;72.78;100215.22;10546256;28;19915;-81
2021/12/26 16:18:32;;;;;;;;;;;;;;;2.45;73.58;100209.13;10542054;28;19931;-81
2021/12/26 16:23:34;;;;;;;;;;;;;;;2.42;73.59;100207.53;10543767;28;20057;-81
2021/12/26 16:28:39;;;;;;;;;;;;;;;2.42;73.33;100214.56;10545563;28;19931;-82
2021/12/26 16:33:41;;;;;;;;;;;;;;;2.46;74.17;100206.44;10538073;27;20018;-82
2021/12/26 16:38:43;;;;;;;;;;;;;;;2.50;74.37;100218.53;10543915;28;19931;-81
2021/12/26 16:43:46;;;;;;;;;;;;;;;2.55;74.22;100217.47;10544856;28;19984;-81
2021/12/26 16:48:48;;;;;;;;;;;;;;;2.59;74.43;100216.41;10541667;28;19967;-82
2021/12/26 16:53:49;;;;;;;;;;;;;;;2.59;74.13;100211.97;10543054;28;19927;-81
2021/12/26 16:58:53;;;;;;;;;;;;;;;2.56;74.84;100198.94;10541156;28;19924;-82
2021/12/26 17:03:56;;;;;;;;;;;;;;;2.61;74.71;100204.00;10533993;27;19943;-81
2021/12/26 17:08:57;;;;;;;;;;;;;;;2.64;75.39;100203.84;10539303;28;19923;-81
2021/12/26 17:14:00;;;;;;;;;;;;;;;2.68;75.18;100203.63;10544234;28;19924;-81
2021/12/26 17:19:02;;;;;;;;;;;;;;;2.69;75.26;100193.91;10542880;28;20014;-81
2021/12/26 17:24:03;;;;;;;;;;;;;;;2.74;76.07;100197.19;10537186;28;20441;-82
2021/12/26 17:29:07;;;;;;;;;;;;;;;2.74;75.63;100186.63;10537066;28;19920;-81
2021/12/26 17:34:09;;;;;;;;;;;;;;;2.78;75.93;100182.06;10535563;27;19935;-81
2021/12/26 17:39:10;;;;;;;;;;;;;;;2.79;75.90;100181.13;10534890;28;19920;-81
2021/12/26 17:44:13;;;;;;;;;;;;;;;2.85;76.24;100183.47;10538166;28;19927;-81
2021/12/26 17:49:15;;;;;;;;;;;;;;;2.88;76.66;100186.81;10534673;28;19923;-82
2021/12/26 17:54:17;;;;;;;;;;;;;;;2.91;76.92;100178.72;10536086;28;20276;-82
2021/12/26 17:59:20;;;;;;;;;;;;;;;2.92;77.47;100176.97;10546773;28;20176;-83
2021/12/26 18:04:21;;;;;;;;;;;;;;;2.92;77.22;100172.53;10551513;28;20395;-81
2021/12/26 18:09:23;;;;;;;;;;;;;;;2.96;77.25;100173.22;10553998;28;19920;-81
2021/12/26 18:14:28;;;;;;;;;;;;;;;2.98;77.40;100183.72;10553926;27;19923;-81
2021/12/26 18:19:29;;;;;;;;;;;;;;;3.00;77.74;100168.66;10552908;28;20620;-81
2021/12/26 18:24:31;;;;;;;;;;;;;;;3.03;77.76;100177.25;10545308;28;19920;-82
2021/12/26 18:29:33;;;;;;;;;;;;;;;3.05;78.98;100172.75;10552548;28;19981;-82
2021/12/26 18:34:35;;;;;;;;;;;;;;;3.09;78.29;100178.72;10549976;28;19919;-83
2021/12/26 18:39:36;;;;;;;;;;;;;;;3.11;78.53;100168.94;10552151;28;19931;-81
2021/12/26 18:44:39;;;;;;;;;;;;;;;3.10;78.92;100160.16;10551536;28;19937;-81
2021/12/26 18:49:41;;;;;;;;;;;;;;;3.12;79.63;100152.19;10547056;28;19980;-81
2021/12/26 18:54:42;;;;;;;;;;;;;;;3.15;79.43;100156.47;10546467;28;19931;-81
2021/12/26 18:59:46;;;;;;;;;;;;;;;3.16;79.88;100161.63;10536926;28;19968;-81
2021/12/26 19:04:47;;;;;;;;;;;;;;;3.16;80.71;100147.59;10539042;28;20140;-81
2021/12/26 19:09:49;;;;;;;;;;;;;;;3.18;80.09;100143.94;10538303;28;19928;-81
2021/12/26 19:14:52;;;;;;;;;;;;;;;3.20;80.87;100143.84;10546856;28;20800;-82
2021/12/26 19:19:54;;;;;;;;;;;;;;;3.20;80.55;100146.50;10545269;28;19931;-82
2021/12/26 19:24:55;;;;;;;;;;;;;;;3.19;80.70;100150.09;10540762;28;20390;-81
2021/12/26 19:29:58;;;;;;;;;;;;;;;3.20;81.74;100143.84;10547031;28;19928;-82
2021/12/26 19:35:00;;;;;;;;;;;;;;;3.25;81.17;100147.13;10543849;28;20526;-82
2021/12/26 19:40:01;;;;;;;;;;;;;;;3.26;81.30;100138.28;10537676;28;20376;-81
2021/12/26 19:45:04;;;;;;;;;;;;;;;3.28;81.78;100141.69;10532372;28;19920;-81
2021/12/26 19:50:06;;;;;;;;;;;;;;;3.29;82.50;100130.19;10538917;28;19930;-80
2021/12/26 19:55:09;;;;;;;;;;;;;;;3.32;82.07;100127.38;10532334;28;19931;-81
2021/12/26 20:00:13;;;;;;;;;;;;;;;3.34;82.29;100111.47;10534815;28;19930;-81
2021/12/26 20:05:14;;;;;;;;;;;;;;;3.38;83.09;100105.09;10539768;28;19935;-81
2021/12/26 20:10:16;;;;;;;;;;;;;;;3.41;83.01;100107.56;10541040;28;19957;-81
2021/12/26 20:15:18;;;;;;;;;;;;;;;3.41;82.83;100105.78;10544668;28;19916;-81
2021/12/26 20:20:21;;;;;;;;;;;;;;;3.38;82.83;100113.84;10542239;28;19928;-82
2021/12/26 20:25:25;;;;;;;;;;;;;;;3.39;83.11;100117.34;10539372;28;19923;-80
2021/12/26 20:30:30;;;;;;;;;;;;;;;3.41;82.57;100105.78;10539199;28;19923;-81
2021/12/26 20:35:31;;;;;;;;;;;;;;;3.46;83.02;100102.88;10541552;28;19927;-82
2021/12/26 20:40:33;;;;;;;;;;;;;;;3.45;83.15;100102.03;10535747;28;19935;-81
2021/12/26 20:45:36;;;;;;;;;;;;;;;3.47;82.74;100099.31;10537872;28;19934;-81
2021/12/26 20:50:38;;;;;;;;;;;;;;;3.48;82.87;100099.25;10543704;28;19920;-82
2021/12/26 20:55:40;;;;;;;;;;;;;;;3.51;83.83;100096.41;10541847;28;19930;-82
2021/12/26 21:00:46;;;;;;;;;;;;;;;3.50;83.33;100089.44;10540967;27;20371;-81
2021/12/26 21:05:48;;;;;;;;;;;;;;;3.52;84.14;100089.34;10543503;28;19928;-81
2021/12/26 21:10:51;;;;;;;;;;;;;;;3.55;83.96;100077.78;10538055;28;19923;-81
2021/12/26 21:15:55;;;;;;;;;;;;;;;3.55;84.38;100072.50;10538376;28;19920;-81
2021/12/26 21:20:58;;;;;;;;;;;;;;;3.56;84.06;100068.91;10538677;28;19935;-82
2021/12/26 21:25:59;;;;;;;;;;;;;;;3.55;83.95;100054.88;10532278;28;19987;-81
2021/12/26 21:31:04;;;;;;;;;;;;;;;3.56;84.81;100040.75;10538487;27;19931;-82
2021/12/26 21:36:05;;;;;;;;;;;;;;;3.59;84.72;100040.56;10538043;28;19926;-81
2021/12/26 21:41:07;;;;;;;;;;;;;;;3.56;84.93;100046.03;10536311;28;19924;-81
2021/12/26 21:46:10;;;;;;;;;;;;;;;3.56;85.17;100045.16;10533835;28;19928;-81
2021/12/26 21:51:11;;;;;;;;;;;;;;;3.57;85.63;100039.78;10534165;28;19927;-80
2021/12/26 21:56:13;;;;;;;;;;;;;;;3.57;85.24;100046.88;10535925;28;20418;-82
2021/12/26 22:01:15;;;;;;;;;;;;;;;3.60;85.71;100036.13;10534637;27;19928;-82
2021/12/26 22:06:17;;;;;;;;;;;;;;;3.59;85.96;100040.56;10533557;28;19924;-82
2021/12/26 22:11:19;;;;;;;;;;;;;;;3.63;85.73;100043.88;10534455;28;19924;-81
2021/12/26 22:16:22;;;;;;;;;;;;;;;3.67;86.56;100040.13;10538276;28;19930;-81
2021/12/26 22:21:24;;;;;;;;;;;;;;;3.69;86.68;100035.59;10535736;28;19931;-81
2021/12/26 22:26:25;;;;;;;;;;;;;;;3.72;86.81;100034.59;10535034;28;20018;-81
2021/12/26 22:31:28;;;;;;;;;;;;;;;3.73;86.21;100039.81;10530861;27;20585;-81
2021/12/26 22:36:30;;;;;;;;;;;;;;;3.78;87.53;100028.97;10531627;28;20379;-81
2021/12/26 22:41:31;;;;;;;;;;;;;;;3.80;86.92;100027.06;10536345;28;19927;-80
2021/12/26 22:46:34;;;;;;;;;;;;;;;3.83;87.40;100035.69;10542097;28;19934;-81
2021/12/26 22:51:35;;;;;;;;;;;;;;;3.85;86.74;100032.97;10545213;28;20468;-81
2021/12/26 22:56:37;;;;;;;;;;;;;;;3.86;86.86;100024.06;10546121;28;19930;-82
2021/12/26 23:01:40;;;;;;;;;;;;;;;3.90;87.96;100020.34;10539395;27;20371;-82
2021/12/26 23:06:42;;;;;;;;;;;;;;;3.92;87.32;100018.47;10542164;28;19930;-81
2021/12/26 23:11:44;;;;;;;;;;;;;;;3.94;87.24;100007.78;10545502;28;19927;-81
2021/12/26 23:16:47;;;;;;;;;;;;;;;3.96;87.95;100000.66;10547362;28;19923;-81
2021/12/26 23:21:48;;;;;;;;;;;;;;;3.98;88.06;99994.34;10551771;28;19923;-81
2021/12/26 23:26:50;;;;;;;;;;;;;;;4.01;87.71;99991.53;10547765;28;19928;-81
2021/12/26 23:31:52;;;;;;;;;;;;;;;4.05;88.01;99993.03;10546922;28;19927;-81
2021/12/26 23:36:55;;;;;;;;;;;;;;;4.06;88.47;99989.44;10549294;27;19931;-80
2021/12/26 23:41:56;;;;;;;;;;;;;;;4.09;88.62;100001.63;10548133;28;19932;-81
2021/12/26 23:46:59;;;;;;;;;;;;;;;4.12;88.55;100005.88;10546121;28;20265;-80
2021/12/26 23:52:00;;;;;;;;;;;;;;;4.12;88.70;99995.31;10544581;28;19946;-80
2021/12/26 23:57:02;;;;;;;;;;;;;;;4.14;88.68;99993.44;10548560;28;20443;-81
